Latest Coastal Weather Observations for Hogan Island

IDV60701

Issued at 10:21 am EST Sunday 2 August 2015 (issued every 10 minutes, with the page automatically refreshed every 10 minutes)

About coastal observations | Map of coastal stations | Coastal observations for VIC | Marine services | Other Formats
Station Details ID: 200838 Name: HOGAN ISLAND Lat: -39.22 Lon: 146.98 Height: 116.0 m
Data from the previous 72 hours. | See also: Recent months at Hogan Island
Date/Time
EST
Temp

°C
Wind Pressure Rain
since 9am
mm
Weather Cloud Vis
km
Sea
Height
m
Swell
Dir
 
Speed
knots
Gust
knots
hPa Trend Height
m
Period
s
Dir
02/09:30am 8.4 WNW 35 41 1008.3 - 0.0 - - - - - - -
02/09:00am 8.2 WNW 35 40 1008.5 - 0.0 - - - - - - -
02/08:30am 8.3 WNW 30 37 1009.1 - 0.0 - - - - - - -
02/08:00am 8.3 WNW 33 39 1009.5 - 0.0 - - - - - - -
02/07:30am 8.3 WNW 32 36 1009.5 - 0.0 - - - - - - -
02/07:00am 8.4 WNW 27 33 1009.6 - 0.0 - - - - - - -
02/06:30am 8.5 WNW 26 30 1009.8 - 0.0 - - - - - - -
02/06:00am 8.5 WNW 25 29 1009.9 - 0.0 - - - - - - -
02/05:30am 8.6 WNW 25 30 1010.0 - 0.0 - - - - - - -
02/05:00am 8.6 WNW 28 33 1010.0 - 0.0 - - - - - - -
02/04:30am 8.6 WNW 28 32 1010.3 - 0.0 - - - - - - -
02/04:00am 8.6 WNW 23 29 1011.0 - 0.0 - - - - - - -
02/03:30am 8.9 WNW 25 31 1011.4 - 0.0 - - - - - - -
02/03:00am 8.9 WNW 25 28 1011.8 - 0.0 - - - - - - -
02/02:30am 9.0 WNW 24 26 1012.0 - 0.0 - - - - - - -
02/02:00am 8.9 WNW 24 27 1012.2 - 0.0 - - - - - - -
02/01:30am 9.0 WNW 23 28 1012.6 - 0.0 - - - - - - -
02/01:00am 8.9 WNW 22 25 1012.8 - 0.0 - - - - - - -
02/12:30am 8.9 WNW 23 26 1012.9 - 0.0 - - - - - - -
02/12:00am 8.8 WNW 22 26 1013.3 - 0.0 - - - - - - -
 
Date/Time
EST
Temp

°C
Wind Pressure Rain
since 9am
mm
Weather Cloud Vis
km
Sea
Height
m
Swell
Dir
 
Speed
knots
Gust
knots
hPa Trend Height
m
Period
s
Dir
01/11:30pm 9.1 WNW 25 31 1013.3 - 0.0 - - - - - - -
01/11:00pm 9.0 WNW 25 31 1013.2 - 0.0 - - - - - - -
01/10:30pm 8.8 WNW 28 31 1013.3 - 0.0 - - - - - - -
01/10:00pm 9.2 WNW 21 26 1013.8 - 0.0 - - - - - - -
01/09:30pm 9.2 WNW 22 27 1013.8 - 0.0 - - - - - - -
01/09:00pm 9.2 WNW 22 27 1013.9 - 0.0 - - - - - - -
01/08:30pm 9.2 WNW 20 25 1013.9 - 0.0 - - - - - - -
01/08:00pm 9.4 WNW 22 30 1014.0 - 0.0 - - - - - - -
01/07:30pm 9.1 WNW 19 24 1013.8 - 0.0 - - - - - - -
01/07:00pm 8.5 WNW 21 25 1013.8 - 0.0 - - - - - - -
01/06:33pm 9.4 W 25 36 1013.2 - 0.0 - - - - - - -
01/06:30pm 9.4 W 24 28 1013.5 - 0.0 - - - - - - -
01/06:00pm 9.4 W 26 31 1013.2 - 0.0 - - - - - - -
01/05:30pm 9.2 W 27 33 1012.3 - 0.0 - - - - - - -
01/05:00pm 9.3 W 26 32 1012.1 - 0.0 - - - - - - -
01/04:30pm 9.4 W 26 30 1012.2 - 0.0 - - - - - - -
01/04:00pm 9.3 W 29 36 1011.9 - 0.0 - - - - - - -
01/03:30pm 9.8 W 29 34 1011.4 - 0.0 - - - - - - -
01/03:00pm 10.3 W 29 34 1011.4 - 0.0 - - - - - - -
01/02:30pm 10.7 W 27 32 1011.5 - 0.0 - - - - - - -
01/02:00pm 10.5 W 31 36 1010.9 - 0.0 - - - - - - -
01/01:30pm 10.5 WSW 35 40 1010.3 - 0.0 - - - - - - -
01/01:00pm 10.6 WSW 39 46 1009.6 - 0.0 - - - - - - -
01/12:53pm 10.3 W 36 46 1009.6 - 0.0 - - - - - - -
01/12:30pm 11.0 W 36 42 1009.8 - 0.0 - - - - - - -
01/12:22pm 10.7 W 35 45 1010.1 - 0.0 - - - - - - -
01/12:00pm 10.4 W 36 41 1010.1 - 0.0 - - - - - - -
01/11:30am 9.8 W 37 43 1009.7 - 0.0 - - - - - - -
01/11:00am 8.9 W 30 36 1010.0 - 0.0 - - - - - - -
01/10:30am 9.1 W 37 49 1009.3 - 0.0 - - - - - - -
01/10:21am 9.0 W 36 49 1009.2 - 0.0 - - - - - - -
01/10:00am 8.9 W 37 42 1008.7 - 0.0 - - - - - - -
01/09:30am 8.5 WSW 38 45 1008.2 - 0.0 - - - - - - -
01/09:00am 8.8 W 35 43 1007.7 - 1.0 - - - - - - -
01/08:30am 9.4 W 40 49 1006.8 - 0.8 - - - - - - -
01/08:00am 11.2 WNW 47 53 1004.5 - 0.6 - - - - - - -
01/07:30am 11.9 WNW 47 53 1004.2 - 0.6 - - - - - - -
01/07:04am 11.8 NW 29 39 1004.4 - 0.6 - - - - - - -
01/07:00am 11.6 NW 30 39 1004.5 - 0.6 - - - - - - -
01/06:54am 11.4 NW 30 38 1004.4 - 0.6 - - - - - - -
01/06:32am 10.6 NNW 18 28 1004.5 - 0.6 - - - - - - -
01/06:30am 10.4 NNW 18 25 1004.6 - 0.6 - - - - - - -
01/06:00am 10.4 NNW 17 23 1005.0 - 0.0 - - - - - - -
01/05:30am 10.4 N 21 29 1004.9 - 0.0 - - - - - - -
01/05:00am 10.1 N 18 25 1005.5 - 0.0 - - - - - - -
01/04:30am 10.5 N 20 27 1005.8 - 0.0 - - - - - - -
01/04:00am 10.4 N 19 28 1006.2 - 0.0 - - - - - - -
01/03:30am 10.5 NNW 16 24 1007.0 - 0.0 - - - - - - -
01/03:00am 9.8 N 17 21 1007.8 - 0.0 - - - - - - -
01/02:30am 9.8 NNW 20 28 1008.4 - 0.0 - - - - - - -
01/02:00am 9.6 NNW 21 28 1009.2 - 0.0 - - - - - - -
01/01:30am 9.1 NNW 13 19 1010.0 - 0.0 - - - - - - -
01/01:00am 9.1 NW 16 22 1011.0 - 0.0 - - - - - - -
01/12:30am 9.5 WNW 15 19 1011.8 - 0.0 - - - - - - -
01/12:00am 9.7 NNW 10 15 1012.1 - 0.0 - - - - - - -
 
Date/Time
EST
Temp

°C
Wind Pressure Rain
since 9am
mm
Weather Cloud Vis
km
Sea
Height
m
Swell
Dir
 
Speed
knots
Gust
knots
hPa Trend Height
m
Period
s
Dir
31/11:30pm 9.6 N 13 18 1012.3 - 0.0 - - - - - - -
31/11:00pm 9.6 N 14 18 1012.7 - 0.0 - - - - - - -
31/10:30pm 9.5 N 15 18 1013.1 - 0.0 - - - - - - -
31/10:00pm 9.4 N 15 19 1013.5 - 0.0 - - - - - - -
31/09:30pm 9.3 N 15 19 1013.9 - 0.0 - - - - - - -
31/09:00pm 8.6 N 14 16 1014.6 - 0.0 - - - - - - -
31/08:30pm 8.8 N 11 14 1014.9 - 0.0 - - - - - - -
31/08:00pm 8.8 NNW 11 14 1015.2 - 0.0 - - - - - - -
31/07:30pm 8.7 NW 11 13 1015.3 - 0.0 - - - - - - -
31/07:00pm 9.0 WNW 14 17 1015.7 - 0.0 - - - - - - -
31/06:30pm 9.0 WNW 14 17 1015.5 - 0.0 - - - - - - -
31/06:00pm 9.0 WNW 14 17 1015.3 - 0.0 - - - - - - -
31/05:30pm 8.9 WNW 14 18 1015.2 - 0.0 - - - - - - -
31/05:00pm 9.2 NW 14 20 1015.4 - 0.0 - - - - - - -
31/04:30pm 9.4 NW 16 19 1015.5 - 0.0 - - - - - - -
31/04:00pm 10.1 NW 16 21 1015.8 - 0.0 - - - - - - -
31/03:30pm 9.8 WNW 15 19 1016.0 - 0.0 - - - - - - -
31/03:00pm 10.8 WNW 12 16 1016.6 - 0.0 - - - - - - -
31/02:30pm 10.9 NW 13 15 1016.3 - 0.0 - - - - - - -
31/02:00pm 10.4 NW 12 17 1016.9 - 0.0 - - - - - - -
31/01:30pm 9.6 WNW 18 21 1017.3 - 0.0 - - - - - - -
31/01:00pm 9.7 WNW 18 23 1017.5 - 0.0 - - - - - - -
31/12:30pm 9.0 WNW 16 19 1018.0 - 0.0 - - - - - - -
31/12:00pm 8.7 WNW 21 24 1018.7 - 0.0 - - - - - - -
31/11:30am 10.1 WNW 16 21 1018.8 - 0.0 - - - - - - -
31/11:00am 10.4 WNW 19 23 1019.2 - 0.0 - - - - - - -
31/10:55am 10.5 WNW 17 23 1019.2 - 0.0 - - - - - - -
31/10:30am 10.1 W 29 35 1018.9 - 0.0 - - - - - - -
31/10:22am 9.6 W 30 34 1018.7 - 0.0 - - - - - - -
31/10:00am 9.5 W 18 23 1018.7 - 0.0 - - - - - - -
31/09:30am 10.2 W 21 24 1018.6 - 0.0 - - - - - - -
31/09:00am 9.7 W 23 26 1018.6 - 0.8 - - - - - - -
31/08:30am 9.6 W 25 31 1018.1 - 0.8 - - - - - - -
31/08:00am 9.6 W 22 27 1017.9 - 0.8 - - - - - - -
31/07:30am 9.1 W 26 30 1017.4 - 0.8 - - - - - - -
31/07:00am 8.8 WSW 26 30 1017.1 - 0.8 - - - - - - -
31/06:30am 9.4 W 26 31 1016.8 - 0.8 - - - - - - -
31/06:00am 9.0 W 27 32 1016.7 - 0.8 - - - - - - -
31/05:30am 8.9 W 29 32 1016.1 - 0.8 - - - - - - -
31/05:00am 8.8 W 29 34 1015.7 - 0.8 - - - - - - -
31/04:30am 8.9 WSW 29 33 1015.5 - 0.8 - - - - - - -
31/04:00am 8.9 WSW 28 32 1015.5 - 0.8 - - - - - - -
31/03:30am 9.2 WSW 29 35 1015.2 - 0.8 - - - - - - -
31/03:00am 9.3 WSW 30 35 1015.2 - 0.8 - - - - - - -
31/02:30am 9.4 WSW 30 35 1014.8 - 0.8 - - - - - - -
31/02:00am 9.7 WSW 31 36 1014.8 - 0.8 - - - - - - -
31/01:30am 9.5 WSW 30 35 1014.1 - 0.8 - - - - - - -
31/01:00am 9.5 WSW 33 39 1013.6 - 0.8 - - - - - - -
31/12:30am 9.6 WSW 34 39 1013.3 - 0.8 - - - - - - -
31/12:00am 9.5 W 39 46 1012.5 - 0.8 - - - - - - -
 
Date/Time
EST
Temp

°C
Wind Pressure Rain
since 9am
mm
Weather Cloud Vis
km
Sea
Height
m
Swell
Dir
 
Speed
knots
Gust
knots
hPa Trend Height
m
Period
s
Dir
30/11:46pm 9.2 W 33 43 1012.5 - 0.8 - - - - - - -
30/11:30pm 8.8 WSW 36 41 1012.4 - 0.6 - - - - - - -
30/11:22pm 8.6 W 36 54 1012.0 - 0.6 - - - - - - -
30/11:16pm 8.2 W 49 59 1011.7 - 0.6 - - - - - - -
30/11:11pm 8.0 W 53 61 1011.0 - 0.6 - - - - - - -
30/11:05pm 8.8 W 41 61 1011.0 - 0.6 - - - - - - -
30/11:00pm 9.4 W 40 46 1011.3 - 0.6 - - - - - - -
30/10:30pm 9.1 W 42 50 1011.0 - 0.6 - - - - - - -
30/10:00pm 9.0 W 47 55 1010.4 - 0.4 - - - - - - -
30/09:47pm 8.5 W 53 65 1010.0 - 0.4 - - - - - - -
30/09:45pm 9.2 W 57 65 1009.1 - 0.4 - - - - - - -
30/09:32pm 10.2 WNW 46 56 1009.9 - 0.4 - - - - - - -
30/09:30pm 9.9 WNW 47 56 1009.6 - 0.4 - - - - - - -
30/09:00pm 10.8 WNW 46 56 1009.2 - 0.4 - - - - - - -
30/08:33pm 10.7 WNW 47 57 1008.7 - 0.4 - - - - - - -
30/08:30pm 10.5 WNW 48 56 1008.8 - 0.4 - - - - - - -
30/08:09pm 10.9 WNW 49 59 1008.6 - 0.4 - - - - - - -
30/08:00pm 10.8 WNW 48 57 1008.3 - 0.4 - - - - - - -
30/07:34pm 11.1 WNW 43 53 1008.4 - 0.4 - - - - - - -
30/07:30pm 10.9 WNW 43 52 1008.6 - 0.4 - - - - - - -
30/07:05pm 10.7 WNW 39 49 1008.5 - 0.2 - - - - - - -
30/07:00pm 11.6 WNW 40 47 1008.6 - 0.2 - - - - - - -
30/06:58pm 11.5 WNW 41 47 1008.5 - 0.2 - - - - - - -
30/06:44pm 11.4 NW 27 38 1009.0 - 0.2 - - - - - - -
30/06:30pm 10.9 NW 22 26 1009.2 - 0.2 - - - - - - -
30/06:00pm 10.2 NNW 20 25 1009.2 - 0.2 - - - - - - -
30/05:30pm 9.6 NW 23 31 1009.2 - 0.2 - - - - - - -
30/05:00pm 10.0 NW 30 40 1010.0 - 0.0 - - - - - - -
30/04:47pm 10.8 NW 32 45 1009.9 - 0.0 - - - - - - -
30/04:44pm 10.9 NW 30 36 1010.0 - 0.0 - - - - - - -
30/04:39pm 10.9 NNW 16 27 1010.3 - 0.0 - - - - - - -
30/04:30pm 10.8 N 14 19 1010.4 - 0.0 - - - - - - -
30/04:00pm 10.5 NNW 10 13 1011.1 - 0.0 - - - - - - -
30/03:30pm 10.1 NNW 13 17 1011.3 - 0.0 - - - - - - -
30/03:00pm 11.1 NW 19 23 1011.8 - 0.0 - - - - - - -
30/02:30pm 11.0 NNW 12 16 1012.2 - 0.0 - - - - - - -
30/02:00pm 10.8 NNW 10 20 1012.5 - 0.0 - - - - - - -
30/01:30pm 10.7 NNW 12 18 1013.5 - 0.0 - - - - - - -
30/01:00pm 10.8 N 12 16 1014.1 - 0.0 - - - - - - -
30/12:30pm 11.5 NNW 10 17 1014.9 - 0.0 - - - - - - -
30/12:00pm 11.0 N 15 18 1015.9 - 0.0 - - - - - - -
30/11:30am 11.7 N 16 19 1016.5 - 0.0 - - - - - - -
30/11:00am 10.2 N 12 16 1017.8 - 0.0 - - - - - - -
30/10:30am 10.3 NNW 12 18 1018.2 - 0.0 - - - - - - -

Other Formats:

Comma delimited format used in spreadsheet applications
http://www.bom.gov.au/fwo/IDV60701/IDV60701.94949.axf

JavaScript Object Notation format (JSON) in row-major order
http://www.bom.gov.au/fwo/IDV60701/IDV60701.94949.json